Time;durP1;ratioP1;P1;durP2;ratioP2;P2;SDS_P1;SDS_P2;PMS_P1;PMS_P2;Temp;Humidity;BMP_temperature;BMP_pressure;BME280_temperature;BME280_humidity;BME280_pressure;Samples;Min_cycle;Max_cycle;Signal;HPM_P1;HPM_P2
2022/08/22 00:00:09;;;;;;;9.90;1.97;;;20.40;88.90;;;21.37;64.58;98007.75;5059892;28;20470;-79
2022/08/22 00:03:01;;;;;;;5.80;1.90;;;20.30;88.80;;;21.30;65.26;98007.19;5060223;28;20468;-79
2022/08/22 00:06:06;;;;;;;4.60;1.53;;;20.30;88.90;;;21.11;66.59;98000.66;5059807;28;20468;-79
2022/08/22 00:08:52;;;;;;;10.27;2.10;;;20.20;89.30;;;21.07;66.89;98004.84;5058533;28;20469;-79
2022/08/22 00:11:39;;;;;;;4.80;1.40;;;20.20;89.50;;;21.06;67.12;98006.72;5059963;28;20843;-79
2022/08/22 00:14:20;;;;;;;3.67;1.63;;;20.10;90.00;;;21.02;67.83;98004.81;5059072;28;21044;-79
2022/08/22 00:17:00;;;;;;;4.57;1.70;;;20.10;90.00;;;20.99;68.47;98005.34;5058633;28;20537;-79
2022/08/22 00:19:47;;;;;;;4.83;2.03;;;20.00;90.10;;;20.96;68.61;98000.53;5059167;28;20460;-79
2022/08/22 00:22:24;;;;;;;3.40;1.30;;;20.00;90.20;;;20.89;69.29;97997.28;5058889;28;20464;-79
2022/08/22 00:25:09;;;;;;;3.63;1.70;;;20.00;90.20;;;20.86;69.48;97995.91;5058978;28;20465;-79
2022/08/22 00:28:01;;;;;;;4.17;2.00;;;19.90;90.40;;;20.88;69.64;97993.00;5061336;28;20464;-80
2022/08/22 00:30:48;;;;;;;4.10;1.83;;;20.00;90.20;;;20.82;70.01;97994.03;5057561;28;20994;-79
2022/08/22 00:33:36;;;;;;;2.73;1.60;;;19.90;90.40;;;20.73;70.80;97985.72;5060037;28;20468;-79
2022/08/22 00:36:19;;;;;;;6.63;1.57;;;19.80;90.40;;;20.69;71.08;97986.50;5059282;28;20460;-79
2022/08/22 00:38:58;;;;;;;4.37;1.60;;;19.80;90.50;;;20.65;71.47;97986.19;5060356;28;20467;-79
2022/08/22 00:42:21;;;;;;;6.90;1.80;;;19.70;90.70;;;20.64;71.86;97987.25;5064815;28;20492;-79
2022/08/22 00:45:58;;;;;;;4.30;1.77;;;19.70;90.60;;;20.58;72.08;97989.03;5065659;28;20460;-79
2022/08/22 00:49:02;;;;;;;3.00;1.33;;;19.60;90.80;;;20.63;71.60;97987.47;5046848;28;20461;-79
2022/08/22 00:52:15;;;;;;;3.63;1.60;;;19.70;90.60;;;20.59;72.01;97980.03;5062394;28;20584;-79
2022/08/22 00:55:20;;;;;;;5.20;1.57;;;19.60;90.70;;;20.59;72.39;97982.69;5061486;28;20457;-79
2022/08/22 00:58:31;;;;;;;2.30;1.37;;;19.60;90.80;;;20.56;72.04;97979.72;5060466;28;20460;-79
2022/08/22 01:01:06;;;;;;;2.43;1.30;;;19.40;90.80;;;20.44;72.67;97982.53;5063547;28;20563;-79
2022/08/22 01:04:25;;;;;;;3.40;1.60;;;19.40;90.90;;;20.43;73.05;97982.78;5061108;28;20472;-79
2022/08/22 01:07:17;;;;;;;6.50;2.10;;;19.40;90.90;;;20.38;73.51;97983.53;5064436;28;20464;-79
2022/08/22 01:10:04;;;;;;;3.67;1.90;;;19.40;90.90;;;20.30;74.00;97977.91;5062825;28;20828;-79
2022/08/22 01:13:05;;;;;;;5.80;1.90;;;19.40;91.10;;;20.24;74.44;97977.00;5060684;28;20549;-78
2022/08/22 01:15:38;;;;;;;3.10;1.73;;;19.40;91.00;;;20.15;75.02;97981.16;5063213;28;20490;-79
2022/08/22 01:18:50;;;;;;;4.50;1.67;;;19.30;91.30;;;20.05;75.97;97965.94;5067013;28;20468;-79
2022/08/22 01:22:00;;;;;;;4.00;1.93;;;19.20;91.30;;;20.06;75.99;97977.34;5059651;28;21061;-79
2022/08/22 01:25:22;;;;;;;2.80;1.30;;;19.10;91.30;;;20.08;75.96;97969.94;5062561;28;21013;-79
2022/08/22 01:28:41;;;;;;;4.67;1.53;;;19.10;91.50;;;20.08;76.02;97972.59;5033262;28;20475;-79
2022/08/22 01:31:51;;;;;;;3.73;1.57;;;19.10;91.50;;;20.03;76.09;97964.53;5063030;28;20475;-79
2022/08/22 01:35:25;;;;;;;3.53;1.40;;;19.10;91.60;;;20.03;76.13;97968.00;5062623;28;20531;-79
2022/08/22 01:38:35;;;;;;;4.60;1.40;;;19.00;91.60;;;19.98;76.27;97975.94;5061265;28;20502;-79
2022/08/22 01:41:48;;;;;;;4.20;1.73;;;19.10;91.40;;;19.91;76.98;97969.22;5061259;28;20529;-79
2022/08/22 01:45:02;;;;;;;4.43;1.80;;;18.90;91.60;;;19.82;77.16;97965.41;5062732;28;20962;-80
2022/08/22 01:47:39;;;;;;;2.87;1.97;;;18.90;91.70;;;19.76;77.84;97969.81;5060416;28;20472;-79
2022/08/22 01:50:23;;;;;;;2.13;1.40;;;18.80;91.70;;;19.73;77.93;97962.38;5062852;28;20486;-79
2022/08/22 01:53:04;;;;;;;10.83;2.20;;;18.80;91.60;;;19.75;77.88;97962.91;5058707;28;21107;-79
2022/08/22 01:55:41;;;;;;;2.57;1.60;;;18.80;91.80;;;19.70;78.06;97956.75;5061053;28;20459;-79
2022/08/22 01:58:24;;;;;;;3.53;1.63;;;18.70;91.90;;;19.62;78.70;97963.28;5063201;28;20557;-79
2022/08/22 02:01:08;;;;;;;2.30;1.40;;;18.70;92.00;;;19.54;79.24;97961.84;5061625;28;20506;-79
2022/08/22 02:03:53;;;;;;;3.63;1.50;;;18.60;92.10;;;19.51;79.78;97961.53;5060841;28;20566;-79
2022/08/22 02:06:35;;;;;;;2.83;1.43;;;18.50;92.30;;;19.51;79.67;97957.03;5063054;28;20564;-79
2022/08/22 02:09:20;;;;;;;3.70;1.70;;;18.60;92.00;;;19.44;79.99;97964.38;5063655;28;20464;-79
2022/08/22 02:11:56;;;;;;;5.27;2.30;;;18.60;92.30;;;19.36;80.93;97961.34;5062366;28;20523;-79
2022/08/22 02:14:41;;;;;;;5.47;1.83;;;18.50;92.40;;;19.33;81.27;97959.94;5064865;28;20460;-79
2022/08/22 02:17:21;;;;;;;7.60;2.20;;;18.40;92.40;;;19.25;81.87;97964.88;5065072;28;20494;-79
2022/08/22 02:20:01;;;;;;;5.00;1.70;;;18.30;92.60;;;19.17;82.54;97966.09;5062940;28;20472;-79
2022/08/22 02:22:42;;;;;;;2.30;1.30;;;18.30;92.60;;;19.08;83.43;97962.28;5064847;28;20448;-79
2022/08/22 02:25:27;;;;;;;3.87;1.70;;;18.20;92.80;;;19.01;83.58;97972.25;5064548;28;20462;-79
2022/08/22 02:28:08;;;;;;;6.40;1.90;;;18.10;92.80;;;18.93;84.53;97970.00;5077856;28;20970;-78
2022/08/22 02:30:51;;;;;;;3.73;1.43;;;18.10;92.80;;;18.96;84.24;97972.16;5060663;28;20471;-79
2022/08/22 02:33:33;;;;;;;4.90;2.40;;;18.10;92.90;;;18.99;83.72;97976.97;5061944;28;20575;-81
2022/08/22 02:36:20;;;;;;;2.20;1.30;;;18.10;92.70;;;18.92;84.16;97966.53;5060511;28;20460;-79
2022/08/22 02:39:02;;;;;;;5.07;1.70;;;18.00;93.00;;;18.98;83.69;97968.22;5062360;28;20465;-79
2022/08/22 02:41:48;;;;;;;5.30;1.90;;;18.10;92.70;;;19.01;83.60;97965.09;5060427;28;20472;-79
2022/08/22 02:44:26;;;;;;;3.57;1.50;;;18.00;92.90;;;18.93;83.70;97967.34;5060999;28;20462;-79
2022/08/22 02:47:07;;;;;;;1.87;1.40;;;18.00;92.90;;;18.92;83.72;97963.88;5058797;28;21496;-80
2022/08/22 02:49:51;;;;;;;4.23;1.77;;;18.00;92.60;;;18.90;83.42;97960.69;5062746;28;20898;-79
2022/08/22 02:52:39;;;;;;;2.97;1.60;;;18.00;92.80;;;18.84;84.16;97961.66;5060748;28;20499;-79
2022/08/22 02:55:16;;;;;;;6.23;1.80;;;17.90;93.10;;;18.68;85.50;97959.78;5060205;28;20468;-79
2022/08/22 02:58:00;;;;;;;3.70;1.90;;;17.80;93.10;;;18.66;86.33;97958.44;5060473;28;20551;-80
2022/08/22 03:00:43;;;;;;;3.60;1.43;;;17.70;93.30;;;18.58;86.73;97960.44;5061158;28;20974;-80
2022/08/22 03:03:21;;;;;;;5.33;1.60;;;17.60;93.50;;;18.57;86.75;97958.81;5059675;28;20483;-79
2022/08/22 03:05:59;;;;;;;3.70;1.70;;;17.60;93.50;;;18.50;86.84;97955.53;5058873;28;20452;-79
2022/08/22 03:08:33;;;;;;;3.20;1.80;;;17.70;93.30;;;18.45;87.58;97958.06;5061098;28;20468;-80
2022/08/22 03:11:24;;;;;;;8.23;1.57;;;17.60;93.70;;;18.42;87.84;97958.56;5061014;28;20476;-80
2022/08/22 03:14:06;;;;;;;3.90;1.37;;;17.50;93.60;;;18.42;88.29;97961.19;5065035;28;20562;-80
2022/08/22 03:16:45;;;;;;;2.30;1.50;;;17.50;93.70;;;18.40;87.68;97957.16;5060647;28;20641;-80
2022/08/22 03:19:27;;;;;;;7.50;1.87;;;17.50;93.70;;;18.29;88.52;97958.84;5063367;28;20457;-78
2022/08/22 03:22:06;;;;;;;4.00;1.70;;;17.40;93.70;;;18.25;88.70;97954.28;5059220;28;20882;-79
2022/08/22 03:24:49;;;;;;;10.60;2.00;;;17.40;93.60;;;18.24;88.63;97953.47;5062220;28;20955;-80
2022/08/22 03:27:24;;;;;;;2.60;1.33;;;17.40;93.60;;;18.24;88.69;97957.94;5063201;28;20510;-80
2022/08/22 03:30:11;;;;;;;4.23;2.03;;;17.40;93.50;;;18.14;89.40;97953.28;5063655;28;21137;-87
2022/08/22 03:32:54;;;;;;;4.17;1.80;;;17.30;93.70;;;18.10;89.98;97955.59;5059861;28;20531;-80
2022/08/22 03:35:32;;;;;;;4.17;1.70;;;17.20;94.00;;;18.05;89.79;97946.75;5060958;28;20468;-80
2022/08/22 03:38:22;;;;;;;2.43;1.70;;;17.20;93.80;;;17.99;90.42;97955.63;5061367;28;20889;-79
2022/08/22 03:41:30;;;;;;;3.60;1.40;;;17.10;94.00;;;17.93;90.51;97952.09;5062551;28;20495;-80
2022/08/22 03:44:58;;;;;;;3.27;1.80;;;17.10;93.90;;;17.93;91.01;97953.94;5062241;28;20499;-80
2022/08/22 03:48:39;;;;;;;4.70;1.73;;;17.00;94.40;;;17.90;91.27;97954.41;5048289;28;21149;-80
2022/08/22 03:51:25;;;;;;;7.10;1.97;;;16.90;94.40;;;17.83;91.44;97957.22;5025360;28;20539;-80
2022/08/22 03:54:34;;;;;;;2.80;1.70;;;17.00;94.10;;;17.75;92.34;97946.19;5059385;28;20619;-80
2022/08/22 03:57:57;;;;;;;3.90;1.70;;;16.90;94.50;;;17.66;92.88;97947.59;5063463;28;20498;-79
2022/08/22 04:01:15;;;;;;;4.73;2.17;;;16.90;94.30;;;17.60;93.09;97944.84;5062800;28;20490;-86
2022/08/22 04:04:43;;;;;;;3.93;1.67;;;16.80;94.30;;;17.57;93.70;97944.50;5057898;28;20464;-79
2022/08/22 04:07:57;;;;;;;3.67;1.50;;;16.70;94.70;;;17.49;93.86;97953.56;5058091;28;20459;-79
2022/08/22 04:11:15;;;;;;;5.07;1.70;;;16.60;94.70;;;17.42;95.02;97958.19;5054566;28;20472;-79
2022/08/22 04:14:17;;;;;;;3.10;1.60;;;16.50;94.80;;;17.44;94.59;97955.31;5064652;28;20495;-80
2022/08/22 04:17:42;;;;;;;4.67;1.77;;;16.50;94.70;;;17.44;94.44;97955.31;5065854;28;20461;-79
2022/08/22 04:21:02;;;;;;;2.13;1.50;;;16.50;94.80;;;17.32;95.06;97968.53;5070283;28;20463;-80
2022/08/22 04:24:09;;;;;;;3.90;1.80;;;16.50;94.70;;;17.28;96.16;97962.13;5066738;28;20456;-80
2022/08/22 04:26:47;;;;;;;7.30;1.90;;;16.40;95.10;;;17.22;95.91;97960.38;5053658;28;20467;-80
2022/08/22 04:29:27;;;;;;;9.73;2.27;;;16.40;94.90;;;17.23;95.73;97964.66;5068435;28;20989;-79
2022/08/22 04:32:08;;;;;;;5.20;1.93;;;16.40;94.80;;;17.25;95.71;97957.28;5064707;28;20468;-79
2022/08/22 04:34:48;;;;;;;3.17;1.40;;;16.30;95.00;;;17.23;96.04;97962.00;5063647;28;20610;-80
2022/08/22 04:37:30;;;;;;;4.27;1.57;;;16.30;95.20;;;17.26;95.94;97964.19;5069062;28;20455;-80
2022/08/22 04:40:10;;;;;;;4.87;1.80;;;16.30;95.20;;;17.21;95.66;97958.81;5067908;28;20539;-79
2022/08/22 04:42:45;;;;;;;4.83;1.97;;;16.30;95.20;;;17.17;95.53;97949.72;5065611;28;20464;-79
2022/08/22 04:45:22;;;;;;;12.33;1.90;;;16.30;94.90;;;17.14;96.65;97950.19;5064692;28;20456;-79
2022/08/22 04:48:01;;;;;;;3.03;1.43;;;16.20;95.20;;;17.09;96.92;97952.72;5065600;28;20958;-80
2022/08/22 04:50:38;;;;;;;9.70;2.10;;;16.20;95.30;;;17.04;98.66;97961.31;5064353;28;20623;-79
2022/08/22 04:53:30;;;;;;;4.90;1.77;;;16.10;95.50;;;16.98;99.06;97958.78;5067895;28;20271;-79
2022/08/22 04:56:11;;;;;;;5.30;1.97;;;16.00;95.70;;;16.96;99.10;97955.59;5067544;28;20482;-79
2022/08/22 04:58:47;;;;;;;5.20;1.93;;;16.00;95.70;;;16.96;98.90;97963.50;5067472;28;20517;-80
2022/08/22 05:01:21;;;;;;;4.90;2.00;;;16.00;95.50;;;16.94;99.15;97957.63;5067594;28;20518;-79
2022/08/22 05:03:59;;;;;;;3.90;1.77;;;16.00;95.80;;;17.01;98.70;97966.25;5067008;28;20459;-79
2022/08/22 05:06:33;;;;;;;3.70;1.60;;;16.00;95.60;;;16.97;98.60;97957.19;5068440;28;20464;-80
2022/08/22 05:09:11;;;;;;;3.70;2.07;;;16.00;95.70;;;17.01;98.32;97961.78;5066297;28;20500;-79
2022/08/22 05:11:45;;;;;;;8.40;3.03;;;16.00;95.60;;;16.97;98.61;97970.41;5065345;28;20492;-79
2022/08/22 05:14:22;;;;;;;2.73;1.97;;;16.00;95.80;;;16.97;98.96;97965.13;5066747;28;20826;-79
2022/08/22 05:16:56;;;;;;;4.67;1.77;;;16.00;95.80;;;16.97;98.61;97965.13;5068068;28;21762;-80
2022/08/22 05:19:33;;;;;;;3.97;1.87;;;16.00;95.60;;;17.00;98.51;97969.94;5068314;28;20523;-79
2022/08/22 05:22:04;;;;;;;3.63;1.93;;;16.00;95.70;;;16.94;98.95;97971.66;5066221;28;20483;-79
2022/08/22 05:24:41;;;;;;;2.60;1.80;;;16.00;95.70;;;16.90;99.64;97965.22;5065236;28;20545;-79
2022/08/22 05:27:15;;;;;;;4.33;2.00;;;15.90;95.80;;;16.89;100.00;97974.19;5067369;28;20475;-80
2022/08/22 05:29:49;;;;;;;4.03;1.83;;;15.90;96.00;;;16.88;100.00;97979.69;5065782;28;20867;-79
2022/08/22 05:32:27;;;;;;;3.03;1.80;;;15.90;96.00;;;16.89;100.00;97983.94;5067147;28;20517;-79
2022/08/22 05:35:02;;;;;;;4.40;2.20;;;15.90;96.10;;;16.92;100.00;97978.22;5067606;28;20521;-79
2022/08/22 05:37:42;;;;;;;4.87;1.90;;;16.00;96.20;;;16.92;100.00;97984.31;5066468;28;20455;-80
2022/08/22 05:40:20;;;;;;;2.27;1.73;;;16.00;96.20;;;17.01;100.00;97982.09;5067401;28;20872;-80
2022/08/22 05:42:50;;;;;;;3.90;2.07;;;16.00;96.20;;;17.02;100.00;97979.25;5065980;28;20467;-79
2022/08/22 05:45:20;;;;;;;2.77;1.50;;;16.00;96.10;;;17.05;100.00;97985.91;5065595;28;20495;-80
2022/08/22 05:47:56;;;;;;;2.77;1.63;;;16.00;96.20;;;17.10;100.00;97984.19;5067647;28;20486;-79
2022/08/22 05:50:36;;;;;;;3.20;1.80;;;16.10;96.10;;;17.15;99.96;97983.50;5066553;28;20460;-79
2022/08/22 05:53:13;;;;;;;5.20;2.10;;;16.10;96.00;;;17.21;99.29;97987.88;5062407;28;20488;-79
2022/08/22 05:55:58;;;;;;;6.07;1.87;;;16.20;95.80;;;17.26;98.75;97985.31;5064515;28;20517;-80
2022/08/22 05:58:50;;;;;;;6.53;1.53;;;16.20;95.80;;;17.31;98.35;97993.38;5065310;28;20460;-80
2022/08/22 06:01:38;;;;;;;5.90;1.80;;;16.30;95.70;;;17.38;98.26;97999.34;5068984;28;20534;-79
2022/08/22 06:04:15;;;;;;;5.33;1.87;;;16.30;95.70;;;17.40;97.77;97992.00;5066506;28;20470;-79
2022/08/22 06:06:54;;;;;;;5.23;2.13;;;16.30;95.70;;;17.43;97.22;97994.16;5064856;28;20988;-79
2022/08/22 06:09:33;;;;;;;5.10;1.90;;;16.40;95.40;;;17.46;96.89;97993.69;5064018;28;20502;-79
2022/08/22 06:12:10;;;;;;;3.83;2.70;;;16.40;95.50;;;17.52;96.52;97990.16;5064958;28;20488;-79
2022/08/22 06:15:06;;;;;;;4.47;1.77;;;16.50;95.40;;;17.57;95.95;97989.47;5063472;28;20493;-80
2022/08/22 06:17:48;;;;;;;2.83;1.57;;;16.60;95.30;;;17.63;95.57;97996.47;5066094;28;20551;-79
2022/08/22 06:20:22;;;;;;;4.27;1.80;;;16.60;95.20;;;17.68;95.38;97999.22;5064060;28;20975;-79
2022/08/22 06:22:55;;;;;;;4.37;1.70;;;16.60;95.30;;;17.74;95.26;97997.47;5067444;28;21240;-79
2022/08/22 06:25:31;;;;;;;4.47;1.70;;;16.70;95.40;;;17.77;94.83;97991.75;5066863;28;20469;-79
2022/08/22 06:28:08;;;;;;;7.40;1.80;;;16.70;95.20;;;17.80;94.92;97991.25;5066448;28;20564;-80
2022/08/22 06:30:39;;;;;;;6.60;2.30;;;16.70;95.20;;;17.83;94.37;97986.31;5065572;28;20476;-80
2022/08/22 06:33:16;;;;;;;6.53;1.77;;;16.80;95.20;;;17.89;94.13;98000.44;5064338;28;20464;-79
2022/08/22 06:38:57;;;;;;;6.07;2.40;;;16.90;95.10;;;17.97;94.02;97998.22;5063879;28;20555;-80
2022/08/22 06:41:32;;;;;;;3.20;1.67;;;16.90;95.10;;;18.02;93.89;98006.25;5066223;28;20830;-79
2022/08/22 06:44:06;;;;;;;5.93;2.43;;;17.00;95.10;;;18.04;93.74;97998.91;5081289;28;21144;-80
2022/08/22 06:46:38;;;;;;;3.60;2.03;;;17.00;95.10;;;18.06;93.59;98009.22;5063298;28;20464;-80
2022/08/22 06:49:09;;;;;;;5.03;1.60;;;17.10;95.10;;;18.08;93.42;98004.53;5065077;28;21053;-80
2022/08/22 06:51:39;;;;;;;4.00;1.70;;;17.10;95.00;;;18.13;93.24;98003.81;5066120;28;20472;-79
2022/08/22 06:54:18;;;;;;;5.33;2.37;;;17.20;95.10;;;18.17;92.97;98002.28;5064282;28;20545;-80
2022/08/22 06:56:51;;;;;;;3.63;1.93;;;17.20;94.90;;;18.24;92.79;98006.41;5062257;28;20950;-79
2022/08/22 06:59:27;;;;;;;2.17;1.70;;;17.20;94.90;;;18.30;92.39;98008.09;5064996;28;20548;-80
2022/08/22 07:02:05;;;;;;;8.20;2.23;;;17.30;94.80;;;18.35;92.21;98002.09;5063203;28;20459;-80
2022/08/22 07:04:36;;;;;;;5.73;1.80;;;17.40;94.90;;;18.39;92.32;98006.69;5064660;28;20842;-80
2022/08/22 07:07:05;;;;;;;2.80;1.60;;;17.40;94.80;;;18.43;92.28;98001.72;5063280;28;20459;-79
2022/08/22 07:09:38;;;;;;;3.90;1.70;;;17.50;94.90;;;18.49;92.53;98001.56;5063792;28;20472;-79
2022/08/22 07:12:17;;;;;;;4.00;1.70;;;17.50;95.00;;;18.53;92.26;97997.41;5065484;28;20545;-80
2022/08/22 07:14:52;;;;;;;3.93;1.53;;;17.60;94.80;;;18.57;92.00;98001.19;5062702;28;20477;-79
2022/08/22 07:17:26;;;;;;;2.70;1.50;;;17.60;94.80;;;18.65;91.68;97999.19;5065144;28;20460;-80
2022/08/22 07:20:03;;;;;;;3.03;1.60;;;17.70;94.80;;;18.70;91.71;98000.13;5065427;28;20609;-79
2022/08/22 07:22:36;;;;;;;3.73;1.77;;;17.80;94.80;;;18.77;91.65;97997.31;5065184;28;20528;-79
2022/08/22 07:25:13;;;;;;;3.17;1.70;;;17.80;94.80;;;18.82;91.37;98002.66;5065629;28;20459;-80
2022/08/22 07:28:03;;;;;;;8.53;1.80;;;17.90;94.70;;;18.90;90.52;98000.44;5063872;28;20519;-80
2022/08/22 07:30:54;;;;;;;2.37;1.50;;;18.00;94.50;;;18.99;89.98;98000.81;5065282;28;20455;-80
2022/08/22 07:33:42;;;;;;;3.20;1.70;;;18.10;94.40;;;19.05;89.35;97997.22;5065562;28;20456;-80
2022/08/22 07:36:30;;;;;;;7.13;2.13;;;18.10;94.10;;;19.14;88.61;97998.41;5065319;28;20499;-80
2022/08/22 07:39:22;;;;;;;3.70;2.00;;;18.20;93.90;;;19.22;87.61;97992.72;5064430;28;20456;-79
2022/08/22 07:42:06;;;;;;;2.90;2.10;;;18.30;93.70;;;19.30;85.94;97991.50;5063047;28;20448;-79
2022/08/22 07:44:57;;;;;;;10.60;2.10;;;18.40;93.30;;;19.39;84.19;97984.72;5063670;28;20455;-80
2022/08/22 07:47:48;;;;;;;5.37;2.07;;;18.50;92.90;;;19.46;82.89;97988.84;5065722;28;20518;-80
2022/08/22 07:50:30;;;;;;;10.07;2.23;;;18.60;92.40;;;19.54;81.41;97983.09;5068868;28;20481;-79
2022/08/22 07:53:09;;;;;;;5.57;1.73;;;18.80;92.50;;;19.63;81.37;97982.66;5069024;28;20938;-79
2022/08/22 07:55:42;;;;;;;2.47;1.67;;;18.80;92.50;;;19.72;81.06;97989.13;5072110;28;20491;-80
2022/08/22 07:58:18;;;;;;;3.60;1.80;;;18.90;92.50;;;19.79;80.61;97984.44;5068254;28;20443;-79
2022/08/22 08:00:49;;;;;;;6.40;1.90;;;19.00;92.40;;;19.88;79.23;97983.78;5069572;28;20449;-80
2022/08/22 08:03:26;;;;;;;3.30;1.63;;;19.10;92.00;;;19.97;78.44;97981.47;5067127;28;20468;-80
2022/08/22 08:05:55;;;;;;;4.23;1.80;;;19.20;91.80;;;20.05;78.13;97986.34;5068428;28;20652;-80
2022/08/22 08:08:31;;;;;;;4.17;2.43;;;19.30;91.90;;;20.12;77.87;97979.00;5069395;28;20451;-84
2022/08/22 08:11:03;;;;;;;3.30;1.80;;;19.40;91.90;;;20.20;77.85;97978.53;5066927;28;20583;-80
2022/08/22 08:13:38;;;;;;;3.40;1.70;;;19.40;91.70;;;20.29;77.93;97986.91;5068160;28;20518;-80
2022/08/22 08:16:16;;;;;;;3.43;2.17;;;19.50;91.90;;;20.34;77.71;97986.97;5069551;28;20495;-80
2022/08/22 08:18:49;;;;;;;7.93;2.23;;;19.60;91.90;;;20.41;77.50;97984.91;5068448;28;20464;-80
2022/08/22 08:21:29;;;;;;;8.40;2.27;;;19.60;91.60;;;20.47;76.76;97979.41;5069570;28;20534;-80
2022/08/22 08:24:01;;;;;;;4.70;2.10;;;19.70;91.60;;;20.53;75.78;97982.88;5070575;28;20476;-80
2022/08/22 08:26:38;;;;;;;8.23;1.87;;;19.80;91.50;;;20.61;74.65;97984.28;5068177;28;21014;-80
2022/08/22 08:29:07;;;;;;;3.50;1.80;;;19.90;91.30;;;20.67;74.64;97981.41;5068157;28;20437;-80
2022/08/22 08:31:41;;;;;;;7.00;2.00;;;19.90;91.20;;;20.72;73.92;97978.00;5068311;28;20876;-80
2022/08/22 08:34:23;;;;;;;3.97;1.70;;;20.00;91.10;;;20.78;73.05;97977.78;5070024;28;20452;-80
2022/08/22 08:36:57;;;;;;;3.57;1.87;;;20.10;90.90;;;20.84;72.54;97990.06;5066727;28;20491;-79
2022/08/22 08:39:35;;;;;;;3.00;1.67;;;20.20;90.90;;;20.92;72.99;97988.81;5067840;28;20980;-80
2022/08/22 08:46:05;;;;;;;4.87;2.37;;;20.20;90.90;;;21.07;71.32;97984.38;5067571;28;20464;-80
2022/08/22 08:49:35;;;;;;;8.43;2.63;;;20.30;90.60;;;21.17;71.14;97977.56;5068516;28;20475;-80
2022/08/22 08:52:57;;;;;;;7.17;2.60;;;20.40;90.60;;;21.26;69.64;97984.81;5034842;28;21050;-80
2022/08/22 08:55:46;;;;;;;8.83;2.63;;;20.50;90.00;;;21.33;67.97;97980.06;5024525;28;20471;-80
2022/08/22 08:58:42;;;;;;;9.03;1.90;;;20.70;89.80;;;21.42;67.17;97973.19;5065367;28;20890;-80
2022/08/22 09:01:40;;;;;;;3.80;1.90;;;20.80;89.60;;;21.50;67.27;97982.53;5064914;28;20468;-80
2022/08/22 09:04:41;;;;;;;5.40;2.10;;;20.90;89.50;;;21.59;66.12;97979.13;5066069;28;20458;-80
2022/08/22 09:08:13;;;;;;;4.37;2.17;;;21.00;89.00;;;21.69;65.88;97972.25;5066172;28;20452;-79
2022/08/22 09:11:13;;;;;;;3.93;2.07;;;21.00;89.10;;;21.76;65.99;97975.50;5027169;28;20480;-80
2022/08/22 09:14:02;;;;;;;4.83;2.37;;;21.10;89.60;;;21.83;65.26;97973.38;5067329;28;20570;-80
2022/08/22 09:16:57;;;;;;;8.13;2.53;;;21.10;88.30;;;21.91;65.05;97978.22;5067493;28;20492;-80
2022/08/22 09:20:24;;;;;;;12.53;2.73;;;21.20;88.00;;;21.99;63.75;97969.72;5068029;28;20500;-79
2022/08/22 09:23:43;;;;;;;3.27;1.93;;;21.30;88.20;;;22.04;63.27;97964.44;5052810;28;20857;-80
2022/08/22 09:26:24;;;;;;;5.40;2.40;;;21.30;87.50;;;22.11;63.06;97962.28;5067054;28;20876;-80
2022/08/22 09:29:07;;;;;;;6.50;2.57;;;21.40;87.90;;;22.17;61.47;97971.91;5066969;28;20442;-80
2022/08/22 09:31:48;;;;;;;9.10;2.50;;;21.60;86.60;;;22.25;61.10;97963.38;5067580;28;20517;-80
2022/08/22 09:34:32;;;;;;;2.97;1.87;;;21.60;86.40;;;22.33;61.11;97951.41;5068358;28;20445;-80
2022/08/22 09:37:19;;;;;;;4.80;2.20;;;21.70;86.40;;;22.39;60.76;97948.50;5067921;28;20554;-80
2022/08/22 09:40:04;;;;;;;3.60;2.00;;;21.70;86.30;;;22.46;60.48;97946.38;5067215;28;20966;-80
2022/08/22 09:42:50;;;;;;;8.47;2.30;;;21.80;86.50;;;22.51;59.45;97946.38;5066580;28;20519;-80
2022/08/22 09:45:44;;;;;;;16.33;2.40;;;21.90;85.70;;;22.57;59.39;97941.84;5066611;28;20551;-80
2022/08/22 09:48:41;;;;;;;4.37;2.63;;;21.90;85.20;;;22.68;58.17;97934.69;5066332;28;20548;-80
2022/08/22 09:51:24;;;;;;;4.90;2.30;;;22.00;84.70;;;22.76;56.01;97932.28;5065740;28;20452;-80
2022/08/22 09:54:28;;;;;;;5.87;2.53;;;22.10;83.50;;;22.85;54.50;97930.66;5067603;28;20441;-79
2022/08/22 09:57:20;;;;;;;3.37;2.10;;;22.20;81.80;;;22.95;54.85;97932.50;5065111;28;20507;-80
2022/08/22 10:00:16;;;;;;;9.03;2.20;;;22.30;82.50;;;23.06;52.91;97920.75;5065318;28;20452;-80
2022/08/22 10:03:11;;;;;;;4.13;2.57;;;22.40;81.30;;;23.17;52.03;97919.69;5063852;28;20537;-80
2022/08/22 10:05:47;;;;;;;5.50;3.00;;;22.70;80.10;;;23.26;52.84;97918.03;5066380;28;20471;-80
2022/08/22 10:08:45;;;;;;;9.13;2.50;;;22.60;80.90;;;23.33;53.14;97923.88;5065923;28;20444;-79
2022/08/22 10:11:27;;;;;;;6.93;2.90;;;22.70;81.40;;;23.40;52.66;97923.59;5065320;28;20929;-80
2022/08/22 10:14:04;;;;;;;8.50;2.70;;;22.80;81.00;;;23.47;51.07;97918.78;5063568;28;20461;-80
2022/08/22 10:17:02;;;;;;;5.60;2.53;;;22.90;79.70;;;23.57;50.88;97917.97;5067281;28;20511;-79
2022/08/22 10:19:41;;;;;;;9.00;2.57;;;23.00;79.10;;;23.66;49.45;97917.13;5066593;28;20543;-80
2022/08/22 10:22:39;;;;;;;5.53;2.67;;;23.20;78.10;;;23.78;48.74;97916.78;5066888;28;20459;-79
2022/08/22 10:25:39;;;;;;;7.13;2.63;;;23.30;77.30;;;23.89;49.44;97907.66;5065660;28;20503;-80
2022/08/22 10:28:21;;;;;;;3.43;2.20;;;23.30;78.10;;;23.95;50.23;97909.25;5058134;28;20456;-80
2022/08/22 10:31:22;;;;;;;15.90;2.50;;;23.30;78.90;;;23.99;49.60;97900.38;5065526;28;20452;-80
2022/08/22 10:34:09;;;;;;;6.70;2.40;;;23.30;78.30;;;24.06;49.68;97900.06;5065311;28;20511;-80
2022/08/22 10:36:58;;;;;;;3.30;2.30;;;23.40;78.30;;;24.12;48.50;97898.19;5064650;28;21032;-80
2022/08/22 10:39:41;;;;;;;9.40;2.60;;;23.50;77.40;;;24.16;48.56;97893.91;5063479;28;20463;-80
2022/08/22 10:42:27;;;;;;;4.37;1.83;;;23.50;77.10;;;24.19;48.46;97888.81;5065673;28;20468;-80
2022/08/22 10:45:26;;;;;;;9.17;2.43;;;23.50;77.30;;;24.27;48.46;97890.06;5067886;28;21131;-80
2022/08/22 10:48:34;;;;;;;9.30;2.40;;;23.60;77.80;;;24.34;48.38;97886.00;5064086;28;20987;-80
2022/08/22 10:51:24;;;;;;;7.60;2.57;;;23.70;77.30;;;24.40;47.49;97879.53;5065253;28;21096;-80
2022/08/22 10:54:27;;;;;;;5.90;2.10;;;23.80;75.60;;;24.48;46.15;97880.81;5065917;28;20881;-80
2022/08/22 10:57:14;;;;;;;6.70;2.10;;;23.90;74.10;;;24.58;46.20;97879.91;5065376;28;20484;-80
2022/08/22 11:00:01;;;;;;;4.53;2.60;;;24.00;75.10;;;24.68;45.92;97879.84;5064659;28;20456;-80
2022/08/22 11:02:44;;;;;;;4.97;2.33;;;24.00;75.10;;;24.83;44.66;97877.03;5064258;28;20449;-80
2022/08/22 11:05:37;;;;;;;3.40;2.13;;;24.20;73.00;;;24.97;44.76;97886.00;5064730;28;20452;-80
2022/08/22 11:08:58;;;;;;;4.20;2.30;;;24.40;73.70;;;25.13;42.23;97876.72;5064444;28;20444;-80
2022/08/22 11:11:54;;;;;;;7.23;2.80;;;24.40;71.20;;;25.23;43.28;97875.81;5058357;28;20545;-80
2022/08/22 11:15:06;;;;;;;4.50;2.70;;;24.50;72.10;;;25.32;42.35;97874.09;5065687;28;20477;-80
2022/08/22 11:18:19;;;;;;;6.43;2.63;;;24.70;71.20;;;25.41;41.25;97875.06;5064582;28;20874;-80
2022/08/22 11:21:04;;;;;;;5.73;2.10;;;24.90;70.30;;;25.51;41.10;97886.47;5064862;28;20440;-80
2022/08/22 11:23:46;;;;;;;4.70;2.50;;;24.90;69.70;;;25.60;40.71;97872.44;5066086;28;20456;-80
2022/08/22 11:26:39;;;;;;;3.90;2.40;;;25.10;69.10;;;25.69;41.13;97868.81;5066214;28;20457;-80
2022/08/22 11:29:44;;;;;;;5.97;2.53;;;25.10;70.40;;;25.79;41.68;97867.91;5065153;28;20464;-80
2022/08/22 11:32:25;;;;;;;7.37;2.60;;;25.20;70.70;;;25.85;40.78;97858.72;5064649;28;20501;-80
2022/08/22 11:35:04;;;;;;;5.13;3.00;;;25.30;69.80;;;25.89;40.87;97867.75;5065278;28;20637;-80
2022/08/22 11:37:51;;;;;;;4.10;2.20;;;25.40;69.80;;;25.93;40.58;97855.34;5064300;28;20483;-80
2022/08/22 11:40:36;;;;;;;5.07;2.70;;;25.40;69.40;;;26.00;40.98;97858.47;5062785;28;20796;-81
2022/08/22 11:43:37;;;;;;;7.70;2.33;;;25.40;70.40;;;26.07;40.57;97855.44;5065680;28;20471;-80
2022/08/22 11:46:27;;;;;;;5.40;2.17;;;25.50;69.30;;;26.15;40.04;97855.56;5064290;28;20499;-80
2022/08/22 11:49:32;;;;;;;6.70;2.10;;;25.50;69.00;;;26.25;39.82;97860.00;5064518;28;20449;-80